Terminal Aerodrome Forecast
Issued by NWS Mt. Holly, NJ

Home | Current Version | Previous Version | Text Only | Print | Product List | Glossary On
Versions: 1 2 3 4 5 6 7 8 9 10 11 12 13 14 15 16 17 18 19 20 21 22 23
478
FTUS41 KPHI 160527
TAFTTN
TAF
KTTN 160527Z 1606/1706 27008KT P6SM FEW040
      TEMPO 1606/1609 5SM BR
     FM161600 24010KT P6SM BKN060
     FM170200 31005KT P6SM BKN035=

USA.gov is the U.S. government's official web portal to all federal, state and local government web resources and services.